sensor_id;sensor_type;location;lat;lon;timestamp;pressure;altitude;pressure_sealevel;temperature;humidity
29505;BME280;16452;54.174;12.092;2023-02-16T00:00:22;102123.31;;;4.73;100.00
29505;BME280;16452;54.174;12.092;2023-02-16T00:02:51;102116.59;;;4.47;100.00
29505;BME280;16452;54.174;12.092;2023-02-16T00:05:26;102128.47;;;4.74;100.00
29505;BME280;16452;54.174;12.092;2023-02-16T00:07:54;102125.00;;;4.83;100.00
29505;BME280;16452;54.174;12.092;2023-02-16T00:10:21;102118.25;;;4.58;100.00
29505;BME280;16452;54.174;12.092;2023-02-16T00:12:47;102128.69;;;4.32;100.00
29505;BME280;16452;54.174;12.092;2023-02-16T00:15:31;102114.03;;;4.46;100.00
29505;BME280;16452;54.174;12.092;2023-02-16T00:18:00;102117.50;;;4.37;100.00
29505;BME280;16452;54.174;12.092;2023-02-16T00:20:27;102114.03;;;4.44;100.00
29505;BME280;16452;54.174;12.092;2023-02-16T00:22:56;102108.06;;;4.32;100.00
29505;BME280;16452;54.174;12.092;2023-02-16T00:25:23;102108.91;;;4.34;100.00
29505;BME280;16452;54.174;12.092;2023-02-16T00:27:49;102104.69;;;4.16;100.00
29505;BME280;16452;54.174;12.092;2023-02-16T00:30:19;102106.44;;;4.19;100.00
29505;BME280;16452;54.174;12.092;2023-02-16T00:32:45;102104.72;;;4.08;100.00
29505;BME280;16452;54.174;12.092;2023-02-16T00:35:18;102102.97;;;4.24;100.00
29505;BME280;16452;54.174;12.092;2023-02-16T00:37:46;102098.69;;;4.14;100.00
29505;BME280;16452;54.174;12.092;2023-02-16T00:40:15;102105.53;;;4.24;100.00
29505;BME280;16452;54.174;12.092;2023-02-16T00:42:42;102095.19;;;4.29;100.00
29505;BME280;16452;54.174;12.092;2023-02-16T00:45:18;102085.78;;;4.14;100.00
29505;BME280;16452;54.174;12.092;2023-02-16T00:47:47;102074.44;;;4.51;100.00
29505;BME280;16452;54.174;12.092;2023-02-16T00:52:42;102065.88;;;4.43;100.00
29505;BME280;16452;54.174;12.092;2023-02-16T00:55:20;102065.75;;;4.62;100.00
29505;BME280;16452;54.174;12.092;2023-02-16T01:00:41;102066.75;;;4.39;100.00
29505;BME280;16452;54.174;12.092;2023-02-16T01:03:15;102069.50;;;4.09;100.00
29505;BME280;16452;54.174;12.092;2023-02-16T01:05:41;102078.94;;;4.11;100.00
29505;BME280;16452;54.174;12.092;2023-02-16T01:08:13;102071.19;;;4.10;100.00
29505;BME280;16452;54.174;12.092;2023-02-16T01:11:01;102073.78;;;4.13;100.00
29505;BME280;16452;54.174;12.092;2023-02-16T01:13:47;102075.50;;;4.08;100.00
29505;BME280;16452;54.174;12.092;2023-02-16T01:16:21;102072.91;;;4.17;100.00
29505;BME280;16452;54.174;12.092;2023-02-16T01:18:48;102077.16;;;4.21;100.00
29505;BME280;16452;54.174;12.092;2023-02-16T01:21:14;102075.50;;;4.11;100.00
29505;BME280;16452;54.174;12.092;2023-02-16T01:23:40;102086.69;;;4.10;100.00
29505;BME280;16452;54.174;12.092;2023-02-16T01:26:15;102090.13;;;4.12;100.00
29505;BME280;16452;54.174;12.092;2023-02-16T01:28:42;102089.38;;;3.77;100.00
29505;BME280;16452;54.174;12.092;2023-02-16T01:31:12;102084.03;;;4.21;100.00
29505;BME280;16452;54.174;12.092;2023-02-16T01:33:38;102080.56;;;4.29;100.00
29505;BME280;16452;54.174;12.092;2023-02-16T01:36:05;102078.00;;;4.31;100.00
29505;BME280;16452;54.174;12.092;2023-02-16T01:38:31;102085.78;;;4.14;100.00
29505;BME280;16452;54.174;12.092;2023-02-16T01:41:12;102082.47;;;3.89;100.00
29505;BME280;16452;54.174;12.092;2023-02-16T01:44:04;102070.31;;;4.19;100.00
29505;BME280;16452;54.174;12.092;2023-02-16T01:46:54;102064.31;;;4.17;100.00
29505;BME280;16452;54.174;12.092;2023-02-16T01:49:21;102065.16;;;4.16;100.00
29505;BME280;16452;54.174;12.092;2023-02-16T01:52:06;102069.44;;;4.24;100.00
29505;BME280;16452;54.174;12.092;2023-02-16T01:57:42;102062.47;;;4.38;100.00
29505;BME280;16452;54.174;12.092;2023-02-16T02:03:17;102047.84;;;4.37;100.00
29505;BME280;16452;54.174;12.092;2023-02-16T02:06:07;102046.13;;;4.42;100.00
29505;BME280;16452;54.174;12.092;2023-02-16T02:09:04;102045.94;;;4.68;100.00
29505;BME280;16452;54.174;12.092;2023-02-16T02:11:44;102034.03;;;4.47;100.00
29505;BME280;16452;54.174;12.092;2023-02-16T02:14:26;102025.44;;;4.47;100.00
29505;BME280;16452;54.174;12.092;2023-02-16T02:17:18;102016.81;;;4.52;100.00
29505;BME280;16452;54.174;12.092;2023-02-16T02:20:03;102007.16;;;4.74;100.00
29505;BME280;16452;54.174;12.092;2023-02-16T02:23:02;102010.88;;;4.38;100.00
29505;BME280;16452;54.174;12.092;2023-02-16T02:29:51;102017.41;;;4.83;100.00
29505;BME280;16452;54.174;12.092;2023-02-16T02:35:57;102011.47;;;4.75;100.00
29505;BME280;16452;54.174;12.092;2023-02-16T02:39:00;102003.03;;;4.50;100.00
29505;BME280;16452;54.174;12.092;2023-02-16T02:42:15;102004.91;;;4.30;100.00
29505;BME280;16452;54.174;12.092;2023-02-16T02:45:04;101994.53;;;4.42;100.00
29505;BME280;16452;54.174;12.092;2023-02-16T02:47:57;101996.13;;;4.57;100.00
29505;BME280;16452;54.174;12.092;2023-02-16T02:53:42;101988.50;;;4.39;100.00
29505;BME280;16452;54.174;12.092;2023-02-16T02:56:10;101986.63;;;4.61;100.00
29505;BME280;16452;54.174;12.092;2023-02-16T02:59:03;102002.22;;;4.45;100.00
29505;BME280;16452;54.174;12.092;2023-02-16T03:01:55;102001.56;;;4.16;100.00
29505;BME280;16452;54.174;12.092;2023-02-16T03:04:27;102003.91;;;4.49;100.00
29505;BME280;16452;54.174;12.092;2023-02-16T03:06:56;102011.59;;;4.59;100.00
29505;BME280;16452;54.174;12.092;2023-02-16T03:09:24;102014.19;;;4.55;100.00
29505;BME280;16452;54.174;12.092;2023-02-16T03:11:52;102014.19;;;4.57;100.00
29505;BME280;16452;54.174;12.092;2023-02-16T03:14:45;102010.81;;;4.47;100.00
29505;BME280;16452;54.174;12.092;2023-02-16T03:17:17;102003.94;;;4.48;100.00
29505;BME280;16452;54.174;12.092;2023-02-16T03:20:07;101999.41;;;4.76;100.00
29505;BME280;16452;54.174;12.092;2023-02-16T03:22:52;102003.22;;;4.28;100.00
29505;BME280;16452;54.174;12.092;2023-02-16T03:25:38;102003.25;;;4.20;100.00
29505;BME280;16452;54.174;12.092;2023-02-16T03:28:27;102006.50;;;4.52;100.00
29505;BME280;16452;54.174;12.092;2023-02-16T03:31:29;102015.16;;;4.38;100.00
29505;BME280;16452;54.174;12.092;2023-02-16T03:33:56;102017.81;;;4.26;100.00
29505;BME280;16452;54.174;12.092;2023-02-16T03:36:24;102026.16;;;4.67;100.00
29505;BME280;16452;54.174;12.092;2023-02-16T03:38:53;102021.03;;;4.64;100.00
29505;BME280;16452;54.174;12.092;2023-02-16T03:41:19;102027.03;;;4.62;100.00
29505;BME280;16452;54.174;12.092;2023-02-16T03:43:45;102017.50;;;4.74;100.00
29505;BME280;16452;54.174;12.092;2023-02-16T03:46:11;102017.63;;;4.59;100.00
29505;BME280;16452;54.174;12.092;2023-02-16T03:48:36;102006.44;;;4.59;100.00
29505;BME280;16452;54.174;12.092;2023-02-16T03:51:02;101999.44;;;4.73;100.00
29505;BME280;16452;54.174;12.092;2023-02-16T03:53:28;101994.31;;;4.70;100.00
29505;BME280;16452;54.174;12.092;2023-02-16T03:55:54;101992.69;;;4.60;100.00
29505;BME280;16452;54.174;12.092;2023-02-16T03:58:23;101990.81;;;4.74;100.00
29505;BME280;16452;54.174;12.092;2023-02-16T04:00:51;101994.16;;;4.85;100.00
29505;BME280;16452;54.174;12.092;2023-02-16T04:03:17;101986.38;;;4.91;100.00
29505;BME280;16452;54.174;12.092;2023-02-16T04:05:43;101995.72;;;5.03;100.00
29505;BME280;16452;54.174;12.092;2023-02-16T04:08:10;101987.16;;;4.99;100.00
29505;BME280;16452;54.174;12.092;2023-02-16T04:10:37;101993.13;;;5.06;100.00
29505;BME280;16452;54.174;12.092;2023-02-16T04:13:03;101985.38;;;5.06;100.00
29505;BME280;16452;54.174;12.092;2023-02-16T04:15:30;101988.84;;;5.03;100.00
29505;BME280;16452;54.174;12.092;2023-02-16T04:17:56;101991.63;;;4.82;100.00
29505;BME280;16452;54.174;12.092;2023-02-16T04:20:30;101985.56;;;4.87;100.00
29505;BME280;16452;54.174;12.092;2023-02-16T04:22:56;101978.56;;;4.95;100.00
29505;BME280;16452;54.174;12.092;2023-02-16T04:25:23;101992.38;;;4.93;100.00
29505;BME280;16452;54.174;12.092;2023-02-16T04:27:49;101991.47;;;4.99;100.00
29505;BME280;16452;54.174;12.092;2023-02-16T04:30:18;101979.91;;;4.40;100.00
29505;BME280;16452;54.174;12.092;2023-02-16T04:32:44;101980.84;;;4.27;100.00
29505;BME280;16452;54.174;12.092;2023-02-16T04:35:10;101983.25;;;4.52;100.00
29505;BME280;16452;54.174;12.092;2023-02-16T04:37:36;101981.50;;;4.56;100.00
29505;BME280;16452;54.174;12.092;2023-02-16T04:40:04;101978.25;;;4.33;100.00
29505;BME280;16452;54.174;12.092;2023-02-16T04:42:31;101985.06;;;4.40;100.00
29505;BME280;16452;54.174;12.092;2023-02-16T04:44:56;101974.72;;;4.47;100.00
29505;BME280;16452;54.174;12.092;2023-02-16T04:47:22;101973.06;;;4.33;100.00
29505;BME280;16452;54.174;12.092;2023-02-16T04:49:52;101965.03;;;4.72;100.00
29505;BME280;16452;54.174;12.092;2023-02-16T04:52:18;101964.16;;;4.73;100.00
29505;BME280;16452;54.174;12.092;2023-02-16T04:54:44;101962.50;;;4.66;100.00
29505;BME280;16452;54.174;12.092;2023-02-16T04:57:10;101954.69;;;4.72;100.00
29505;BME280;16452;54.174;12.092;2023-02-16T04:59:36;101958.88;;;4.85;100.00
29505;BME280;16452;54.174;12.092;2023-02-16T05:02:02;101958.28;;;4.56;100.00
29505;BME280;16452;54.174;12.092;2023-02-16T05:04:28;101955.66;;;4.64;100.00
29505;BME280;16452;54.174;12.092;2023-02-16T05:06:54;101953.97;;;4.55;100.00
29505;BME280;16452;54.174;12.092;2023-02-16T05:09:20;101943.56;;;4.67;100.00
29505;BME280;16452;54.174;12.092;2023-02-16T05:11:45;101934.91;;;4.76;100.00
29505;BME280;16452;54.174;12.092;2023-02-16T05:14:34;101936.72;;;4.63;100.00
29505;BME280;16452;54.174;12.092;2023-02-16T05:17:19;101945.47;;;4.45;100.00
29505;BME280;16452;54.174;12.092;2023-02-16T05:19:52;101938.59;;;4.47;100.00
29505;BME280;16452;54.174;12.092;2023-02-16T05:22:19;101944.56;;;4.49;100.00
29505;BME280;16452;54.174;12.092;2023-02-16T05:24:45;101932.47;;;4.54;100.00
29505;BME280;16452;54.174;12.092;2023-02-16T05:27:21;101927.09;;;4.79;100.00
29505;BME280;16452;54.174;12.092;2023-02-16T05:29:47;101924.78;;;4.53;100.00
29505;BME280;16452;54.174;12.092;2023-02-16T05:32:13;101927.38;;;4.50;100.00
29505;BME280;16452;54.174;12.092;2023-02-16T05:34:39;101930.59;;;4.72;100.00
29505;BME280;16452;54.174;12.092;2023-02-16T05:37:06;101925.50;;;4.69;100.00
29505;BME280;16452;54.174;12.092;2023-02-16T05:39:31;101935.97;;;4.52;100.00
29505;BME280;16452;54.174;12.092;2023-02-16T05:41:57;101941.22;;;4.38;100.00
29505;BME280;16452;54.174;12.092;2023-02-16T05:44:23;101936.91;;;4.42;100.00
29505;BME280;16452;54.174;12.092;2023-02-16T05:46:49;101933.63;;;4.25;100.00
29505;BME280;16452;54.174;12.092;2023-02-16T05:49:15;101937.00;;;4.25;100.00
29505;BME280;16452;54.174;12.092;2023-02-16T05:51:41;101928.50;;;4.14;100.00
29505;BME280;16452;54.174;12.092;2023-02-16T05:54:08;101932.81;;;4.13;100.00
29505;BME280;16452;54.174;12.092;2023-02-16T05:56:35;101927.75;;;3.98;100.00
29505;BME280;16452;54.174;12.092;2023-02-16T05:59:01;101933.69;;;4.08;100.00
29505;BME280;16452;54.174;12.092;2023-02-16T06:01:28;101934.47;;;4.21;100.00
29505;BME280;16452;54.174;12.092;2023-02-16T06:03:54;101934.63;;;4.01;100.00
29505;BME280;16452;54.174;12.092;2023-02-16T06:06:20;101932.06;;;3.99;100.00
29505;BME280;16452;54.174;12.092;2023-02-16T06:08:46;101932.91;;;4.01;100.00
29505;BME280;16452;54.174;12.092;2023-02-16T06:11:12;101929.41;;;4.11;100.00
29505;BME280;16452;54.174;12.092;2023-02-16T06:13:57;101934.56;;;4.08;100.00
29505;BME280;16452;54.174;12.092;2023-02-16T06:16:28;101944.03;;;4.05;100.00
29505;BME280;16452;54.174;12.092;2023-02-16T06:18:55;101943.28;;;3.88;100.00
29505;BME280;16452;54.174;12.092;2023-02-16T06:21:22;101942.38;;;3.96;100.00
29505;BME280;16452;54.174;12.092;2023-02-16T06:23:48;101948.41;;;3.95;100.00
29505;BME280;16452;54.174;12.092;2023-02-16T06:26:15;101939.78;;;3.98;100.00
29505;BME280;16452;54.174;12.092;2023-02-16T06:28:41;101943.22;;;3.98;100.00
29505;BME280;16452;54.174;12.092;2023-02-16T06:31:07;101940.66;;;3.97;100.00
29505;BME280;16452;54.174;12.092;2023-02-16T06:33:33;101931.28;;;3.90;100.00
29505;BME280;16452;54.174;12.092;2023-02-16T06:35:59;101939.03;;;3.81;100.00
29505;BME280;16452;54.174;12.092;2023-02-16T06:38:25;101935.53;;;3.91;100.00
29505;BME280;16452;54.174;12.092;2023-02-16T06:40:53;101929.44;;;4.04;100.00
29505;BME280;16452;54.174;12.092;2023-02-16T06:43:20;101933.84;;;3.85;100.00
29505;BME280;16452;54.174;12.092;2023-02-16T06:45:46;101927.84;;;3.88;100.00
29505;BME280;16452;54.174;12.092;2023-02-16T06:48:13;101924.34;;;3.95;100.00
29505;BME280;16452;54.174;12.092;2023-02-16T06:50:38;101922.69;;;3.89;100.00
29505;BME280;16452;54.174;12.092;2023-02-16T06:53:04;101914.94;;;3.89;100.00
29505;BME280;16452;54.174;12.092;2023-02-16T06:55:30;101927.84;;;3.85;100.00
29505;BME280;16452;54.174;12.092;2023-02-16T06:58:00;101932.94;;;3.94;100.00
29505;BME280;16452;54.174;12.092;2023-02-16T07:00:26;101933.78;;;3.97;100.00
29505;BME280;16452;54.174;12.092;2023-02-16T07:02:52;101938.00;;;4.09;100.00
29505;BME280;16452;54.174;12.092;2023-02-16T07:05:18;101934.56;;;4.11;100.00
29505;BME280;16452;54.174;12.092;2023-02-16T07:07:44;101928.41;;;4.26;100.00
29505;BME280;16452;54.174;12.092;2023-02-16T07:10:10;101926.69;;;4.28;100.00
29505;BME280;16452;54.174;12.092;2023-02-16T07:12:35;101933.28;;;4.63;100.00
29505;BME280;16452;54.174;12.092;2023-02-16T07:15:01;101928.22;;;4.49;100.00
29505;BME280;16452;54.174;12.092;2023-02-16T07:17:27;101919.69;;;4.44;100.00
29505;BME280;16452;54.174;12.092;2023-02-16T07:19:52;101926.41;;;4.60;100.00
29505;BME280;16452;54.174;12.092;2023-02-16T07:22:18;101921.31;;;4.55;100.00
29505;BME280;16452;54.174;12.092;2023-02-16T07:24:44;101922.06;;;4.68;100.00
29505;BME280;16452;54.174;12.092;2023-02-16T07:27:09;101923.84;;;4.60;100.00
29505;BME280;16452;54.174;12.092;2023-02-16T07:29:35;101915.06;;;4.81;100.00
29505;BME280;16452;54.174;12.092;2023-02-16T07:32:02;101917.47;;;4.97;100.00
29505;BME280;16452;54.174;12.092;2023-02-16T07:34:28;101918.44;;;4.87;100.00
29505;BME280;16452;54.174;12.092;2023-02-16T07:36:54;101914.19;;;4.79;100.00
29505;BME280;16452;54.174;12.092;2023-02-16T07:39:20;101920.13;;;4.90;100.00
29505;BME280;16452;54.174;12.092;2023-02-16T07:41:45;101914.94;;;4.91;100.00
29505;BME280;16452;54.174;12.092;2023-02-16T07:44:11;101923.53;;;4.92;100.00
29505;BME280;16452;54.174;12.092;2023-02-16T07:46:37;101923.28;;;5.16;100.00
29505;BME280;16452;54.174;12.092;2023-02-16T07:49:03;101926.00;;;5.03;100.00
29505;BME280;16452;54.174;12.092;2023-02-16T07:51:30;101922.44;;;5.13;100.00
29505;BME280;16452;54.174;12.092;2023-02-16T07:53:58;101941.31;;;5.22;100.00
29505;BME280;16452;54.174;12.092;2023-02-16T07:56:27;101949.72;;;5.36;100.00
29505;BME280;16452;54.174;12.092;2023-02-16T07:58:54;101930.84;;;5.33;100.00
29505;BME280;16452;54.174;12.092;2023-02-16T08:01:21;101937.59;;;5.45;100.00
29505;BME280;16452;54.174;12.092;2023-02-16T08:03:48;101933.31;;;6.08;100.00
29505;BME280;16452;54.174;12.092;2023-02-16T08:06:14;101931.03;;;6.43;100.00
29505;BME280;16452;54.174;12.092;2023-02-16T08:08:40;101919.53;;;6.59;100.00
29505;BME280;16452;54.174;12.092;2023-02-16T08:11:26;101927.38;;;6.01;100.00
29505;BME280;16452;54.174;12.092;2023-02-16T08:13:52;101927.28;;;6.09;100.00
29505;BME280;16452;54.174;12.092;2023-02-16T08:16:27;101921.75;;;6.30;100.00
29505;BME280;16452;54.174;12.092;2023-02-16T08:18:56;101932.53;;;6.01;100.00
29505;BME280;16452;54.174;12.092;2023-02-16T08:21:26;101933.25;;;6.12;100.00
29505;BME280;16452;54.174;12.092;2023-02-16T08:23:53;101939.31;;;6.11;100.00
29505;BME280;16452;54.174;12.092;2023-02-16T08:26:24;101943.59;;;6.12;100.00
29505;BME280;16452;54.174;12.092;2023-02-16T08:28:50;101937.28;;;6.30;100.00
29505;BME280;16452;54.174;12.092;2023-02-16T08:31:20;101937.75;;;6.55;100.00
29505;BME280;16452;54.174;12.092;2023-02-16T08:33:51;101937.63;;;6.63;100.00
29505;BME280;16452;54.174;12.092;2023-02-16T08:36:26;101926.13;;;6.79;100.00
29505;BME280;16452;54.174;12.092;2023-02-16T08:38:54;101922.47;;;6.89;100.00
29505;BME280;16452;54.174;12.092;2023-02-16T08:41:23;101919.13;;;7.28;100.00
29505;BME280;16452;54.174;12.092;2023-02-16T08:43:51;101931.47;;;7.57;100.00
29505;BME280;16452;54.174;12.092;2023-02-16T08:46:17;101922.06;;;7.93;100.00
29505;BME280;16452;54.174;12.092;2023-02-16T08:48:43;101917.38;;;8.09;100.00
29505;BME280;16452;54.174;12.092;2023-02-16T08:51:18;101924.31;;;8.45;100.00
29505;BME280;16452;54.174;12.092;2023-02-16T08:53:45;101923.44;;;8.45;100.00
29505;BME280;16452;54.174;12.092;2023-02-16T08:56:12;101918.53;;;8.68;98.87
29505;BME280;16452;54.174;12.092;2023-02-16T08:58:39;101913.81;;;8.84;98.69
29505;BME280;16452;54.174;12.092;2023-02-16T09:01:09;101903.53;;;9.10;97.45
29505;BME280;16452;54.174;12.092;2023-02-16T09:03:37;101916.22;;;9.22;96.71
29505;BME280;16452;54.174;12.092;2023-02-16T09:06:05;101908.44;;;9.21;96.22
29505;BME280;16452;54.174;12.092;2023-02-16T09:08:32;101901.19;;;9.32;96.39
29505;BME280;16452;54.174;12.092;2023-02-16T09:11:11;101910.03;;;9.56;95.17
29505;BME280;16452;54.174;12.092;2023-02-16T09:13:38;101903.69;;;9.66;94.61
29505;BME280;16452;54.174;12.092;2023-02-16T09:16:11;101907.53;;;9.82;93.76
29505;BME280;16452;54.174;12.092;2023-02-16T09:18:38;101910.59;;;9.95;92.79
29505;BME280;16452;54.174;12.092;2023-02-16T09:21:11;101907.81;;;10.01;93.04
29505;BME280;16452;54.174;12.092;2023-02-16T09:23:42;101901.41;;;10.11;92.34
29505;BME280;16452;54.174;12.092;2023-02-16T09:26:08;101900.78;;;9.75;92.26
29505;BME280;16452;54.174;12.092;2023-02-16T09:28:39;101904.50;;;10.23;91.75
29505;BME280;16452;54.174;12.092;2023-02-16T09:31:17;101897.59;;;10.22;91.38
29505;BME280;16452;54.174;12.092;2023-02-16T09:33:45;101899.69;;;10.38;90.43
29505;BME280;16452;54.174;12.092;2023-02-16T09:36:12;101897.44;;;10.53;90.23
29505;BME280;16452;54.174;12.092;2023-02-16T09:38:39;101902.31;;;10.62;90.70
29505;BME280;16452;54.174;12.092;2023-02-16T09:41:14;101893.56;;;10.65;90.23
29505;BME280;16452;54.174;12.092;2023-02-16T09:43:56;101896.56;;;10.78;89.22
29505;BME280;16452;54.174;12.092;2023-02-16T09:46:24;101889.56;;;10.80;89.38
29505;BME280;16452;54.174;12.092;2023-02-16T09:48:51;101895.38;;;10.88;89.51
29505;BME280;16452;54.174;12.092;2023-02-16T09:51:34;101898.66;;;10.93;89.74
29505;BME280;16452;54.174;12.092;2023-02-16T09:57:06;101897.97;;;10.88;89.35
29505;BME280;16452;54.174;12.092;2023-02-16T10:10:14;101900.44;;;11.16;88.55
29505;BME280;16452;54.174;12.092;2023-02-16T10:12:49;101888.00;;;10.99;88.34
29505;BME280;16452;54.174;12.092;2023-02-16T10:15:24;101895.09;;;11.19;87.93
29505;BME280;16452;54.174;12.092;2023-02-16T10:18:02;101901.06;;;11.22;88.24
29505;BME280;16452;54.174;12.092;2023-02-16T10:20:37;101887.66;;;11.08;88.69
29505;BME280;16452;54.174;12.092;2023-02-16T10:28:57;101899.72;;;11.12;89.58
29505;BME280;16452;54.174;12.092;2023-02-16T10:34:50;101906.69;;;11.11;90.21
29505;BME280;16452;54.174;12.092;2023-02-16T10:37:47;101907.53;;;11.12;90.57
29505;BME280;16452;54.174;12.092;2023-02-16T10:41:10;101919.13;;;11.03;91.28
29505;BME280;16452;54.174;12.092;2023-02-16T10:44:02;101917.22;;;11.08;91.76
29505;BME280;16452;54.174;12.092;2023-02-16T10:46:38;101921.09;;;10.97;92.90
29505;BME280;16452;54.174;12.092;2023-02-16T10:49:10;101923.63;;;11.00;92.97
29505;BME280;16452;54.174;12.092;2023-02-16T10:51:37;101924.78;;;10.91;93.02
29505;BME280;16452;54.174;12.092;2023-02-16T10:54:11;101925.47;;;10.96;93.01
29505;BME280;16452;54.174;12.092;2023-02-16T10:56:54;101918.41;;;11.00;92.47
29505;BME280;16452;54.174;12.092;2023-02-16T10:59:39;101921.75;;;11.03;91.72
29505;BME280;16452;54.174;12.092;2023-02-16T11:02:28;101916.56;;;11.02;91.82
29505;BME280;16452;54.174;12.092;2023-02-16T11:04:57;101916.06;;;10.92;92.16
29505;BME280;16452;54.174;12.092;2023-02-16T11:07:28;101910.63;;;10.74;93.03
29505;BME280;16452;54.174;12.092;2023-02-16T11:09:58;101901.78;;;10.78;92.52
29505;BME280;16452;54.174;12.092;2023-02-16T11:12:34;101895.41;;;10.86;92.90
29505;BME280;16452;54.174;12.092;2023-02-16T11:23:20;101871.59;;;10.95;92.08
29505;BME280;16452;54.174;12.092;2023-02-16T11:26:24;101873.31;;;10.96;91.26
29505;BME280;16452;54.174;12.092;2023-02-16T11:28:51;101880.38;;;10.94;91.39
29505;BME280;16452;54.174;12.092;2023-02-16T11:31:37;101867.84;;;11.04;90.86
29505;BME280;16452;54.174;12.092;2023-02-16T11:34:36;101872.19;;;11.03;90.57
29505;BME280;16452;54.174;12.092;2023-02-16T11:37:18;101878.00;;;11.11;90.30
29505;BME280;16452;54.174;12.092;2023-02-16T11:39:56;101883.44;;;11.05;91.01
29505;BME280;16452;54.174;12.092;2023-02-16T11:42:39;101877.91;;;11.13;90.33
29505;BME280;16452;54.174;12.092;2023-02-16T11:45:32;101876.91;;;11.17;90.05
29505;BME280;16452;54.174;12.092;2023-02-16T11:48:05;101882.00;;;11.20;90.04
29505;BME280;16452;54.174;12.092;2023-02-16T11:50:37;101889.50;;;11.06;90.65
29505;BME280;16452;54.174;12.092;2023-02-16T11:55:43;101886.50;;;11.17;90.31
29505;BME280;16452;54.174;12.092;2023-02-16T11:58:26;101877.06;;;11.12;91.01
29505;BME280;16452;54.174;12.092;2023-02-16T12:01:14;101882.00;;;10.97;92.37
29505;BME280;16452;54.174;12.092;2023-02-16T12:13:19;101896.91;;;10.16;99.69
29505;BME280;16452;54.174;12.092;2023-02-16T12:16:35;101886.66;;;10.38;99.28
29505;BME280;16452;54.174;12.092;2023-02-16T12:22:05;101877.50;;;9.98;100.00
29505;BME280;16452;54.174;12.092;2023-02-16T12:27:44;101874.47;;;10.12;100.00
29505;BME280;16452;54.174;12.092;2023-02-16T12:30:42;101876.72;;;10.24;100.00
29505;BME280;16452;54.174;12.092;2023-02-16T12:33:45;101879.34;;;10.22;100.00
29505;BME280;16452;54.174;12.092;2023-02-16T12:36:42;101877.22;;;10.35;100.00
29505;BME280;16452;54.174;12.092;2023-02-16T12:39:30;101878.91;;;10.36;100.00
29505;BME280;16452;54.174;12.092;2023-02-16T12:44:53;101872.19;;;10.29;100.00
29505;BME280;16452;54.174;12.092;2023-02-16T12:47:43;101852.53;;;10.45;100.00
29505;BME280;16452;54.174;12.092;2023-02-16T12:50:28;101853.34;;;10.21;100.00
29505;BME280;16452;54.174;12.092;2023-02-16T12:53:18;101849.41;;;10.36;100.00
29505;BME280;16452;54.174;12.092;2023-02-16T12:55:51;101863.19;;;10.11;100.00
29505;BME280;16452;54.174;12.092;2023-02-16T12:58:29;101854.88;;;10.00;100.00
29505;BME280;16452;54.174;12.092;2023-02-16T13:01:02;101853.91;;;10.31;100.00
29505;BME280;16452;54.174;12.092;2023-02-16T13:03:43;101855.19;;;10.19;100.00
29505;BME280;16452;54.174;12.092;2023-02-16T13:06:22;101855.75;;;10.27;100.00
29505;BME280;16452;54.174;12.092;2023-02-16T13:09:36;101850.91;;;10.15;100.00
29505;BME280;16452;54.174;12.092;2023-02-16T13:12:39;101848.84;;;10.26;100.00
29505;BME280;16452;54.174;12.092;2023-02-16T13:18:04;101852.59;;;10.44;100.00
29505;BME280;16452;54.174;12.092;2023-02-16T13:20:32;101849.34;;;10.37;100.00
29505;BME280;16452;54.174;12.092;2023-02-16T13:26:18;101849.88;;;10.47;100.00
29505;BME280;16452;54.174;12.092;2023-02-16T13:29:21;101846.19;;;10.54;100.00
29505;BME280;16452;54.174;12.092;2023-02-16T13:32:37;101841.53;;;10.37;100.00
29505;BME280;16452;54.174;12.092;2023-02-16T13:43:59;101842.38;;;10.38;100.00
29505;BME280;16452;54.174;12.092;2023-02-16T13:46:41;101836.25;;;10.39;100.00
29505;BME280;16452;54.174;12.092;2023-02-16T13:49:37;101836.88;;;10.20;100.00
29505;BME280;16452;54.174;12.092;2023-02-16T13:52:09;101832.84;;;10.10;100.00
29505;BME280;16452;54.174;12.092;2023-02-16T13:54:38;101834.03;;;10.28;100.00
29505;BME280;16452;54.174;12.092;2023-02-16T13:57:13;101832.53;;;10.21;100.00
29505;BME280;16452;54.174;12.092;2023-02-16T14:02:11;101828.50;;;10.11;100.00
29505;BME280;16452;54.174;12.092;2023-02-16T14:07:21;101824.66;;;10.22;100.00
29505;BME280;16452;54.174;12.092;2023-02-16T14:09:55;101822.03;;;10.24;100.00
29505;BME280;16452;54.174;12.092;2023-02-16T14:12:28;101821.53;;;10.38;100.00
29505;BME280;16452;54.174;12.092;2023-02-16T14:15:16;101818.50;;;10.25;100.00
29505;BME280;16452;54.174;12.092;2023-02-16T14:17:43;101819.22;;;10.30;100.00
29505;BME280;16452;54.174;12.092;2023-02-16T14:30:43;101812.09;;;10.35;100.00
29505;BME280;16452;54.174;12.092;2023-02-16T14:40:57;101814.00;;;10.30;100.00
29505;BME280;16452;54.174;12.092;2023-02-16T14:43:51;101813.59;;;10.42;100.00
29505;BME280;16452;54.174;12.092;2023-02-16T14:46:39;101818.59;;;10.48;100.00
29505;BME280;16452;54.174;12.092;2023-02-16T15:03:54;101789.69;;;11.24;100.00
29505;BME280;16452;54.174;12.092;2023-02-16T15:06:32;101800.03;;;11.04;100.00
29505;BME280;16452;54.174;12.092;2023-02-16T15:09:02;101803.09;;;10.92;100.00
29505;BME280;16452;54.174;12.092;2023-02-16T15:11:37;101796.84;;;10.96;100.00
29505;BME280;16452;54.174;12.092;2023-02-16T15:14:26;101795.63;;;10.83;100.00
29505;BME280;16452;54.174;12.092;2023-02-16T15:16:53;101795.94;;;10.74;100.00